Startpagina
METAR-TAF:

METAR-TAF

Vliegvelden :

Luchthaven Damascus

Damascus, Syrië

breedte: 33-25N, lengte: 036-31E, hoogte: 608 m

Actueel weer

Dit bericht is 5 minuten geleden gemaakt, om 14:00 UTC
Wind 6 kt uit het noordnoordoosten
Temperatuur 19°C
Vochtigheid 49%
Druk 1020 hPa
Zicht 10 km of meer
Weinig wolken op 3000 ft
Verspreide wolken op 20000 ft

METAR: OSDI 191400Z 03006KT 9999 FEW030 SCT200 19/08 Q1020

Tijdstip: 16:05 (14:05 UTC)

Verwachting

Verwachting geldig van 19 om 12 UTC tot 20 om 18 UTC
Wind 10 kt uit het oostnoordoosten
Zicht 10 km of meer
Weinig wolken op 3000 ft
Wijzigt naar
van 19 om 18 UTC tot 19 om 20 UTC
Wind 3 kt uit variabele richting
Zicht 10 km of meer
geen wolken onder 1500 m en geen cumulonimbus

TAF: OSDI 1912/2018 06010KT 9999 FEW030 BECMG 1918/1920 VRB03KT CAVOK

Waarnemingen en weersverwachtingen van meer dan 4000 vliegvelden (METAR en TAF).

De beschikbare stations zijn de gele en rode punten op de kaart.

Ga met uw muis naar het station om de naam te zien.

Klik dan om waarnemingen en weersverwachtingen te zien.

kaart wijzigen: klik op de groene knoppen met een zwart kruis om in te zoomen, op de groene knop met een streepje om uit te zoomen of op de groene pijlen voor aangrenzende kaarten.


METAR-TAF: